createdAt,value
2017-04-16T00:00:03.801Z,8.6
2017-04-16T00:00:08.234Z,8.65
2017-04-16T00:00:12.661Z,8.63
2017-04-16T00:00:16.994Z,8.55
2017-04-16T00:00:21.636Z,8.6
2017-04-16T00:00:26.058Z,8.6
2017-04-16T00:00:30.490Z,8.6
2017-04-16T00:00:34.926Z,8.63
2017-04-16T00:00:39.349Z,8.6
2017-04-16T00:00:43.652Z,8.61
2017-04-16T00:00:48.073Z,8.64
2017-04-16T00:00:52.508Z,8.6
2017-04-16T00:00:56.929Z,8.61
2017-04-16T00:01:01.359Z,8.63
2017-04-16T00:01:05.785Z,8.65
2017-04-16T00:01:10.213Z,8.55
2017-04-16T00:01:14.631Z,8.63
2017-04-16T00:01:18.935Z,8.65
2017-04-16T00:01:23.461Z,8.7
2017-04-16T00:01:28.116Z,8.6
2017-04-16T00:01:32.413Z,8.64
2017-04-16T00:01:36.717Z,8.57
2017-04-16T00:01:41.153Z,8.64
2017-04-16T00:01:45.579Z,8.65
2017-04-16T00:01:49.999Z,8.6
2017-04-16T00:01:54.420Z,8.61
2017-04-16T00:01:58.847Z,8.63
2017-04-16T00:02:03.271Z,8.61
2017-04-16T00:02:07.459Z,8.65
2017-04-16T00:02:11.765Z,8.63
2017-04-16T00:02:16.186Z,8.55
2017-04-16T00:02:20.615Z,8.61
2017-04-16T00:02:25.049Z,8.65
2017-04-16T00:02:29.238Z,8.57
2017-04-16T00:02:33.676Z,8.64
2017-04-16T00:02:37.889Z,8.63
2017-04-16T00:02:42.320Z,8.63
2017-04-16T00:02:46.743Z,8.6
2017-04-16T00:02:51.165Z,8.64
2017-04-16T00:02:55.598Z,8.64
2017-04-16T00:03:00.043Z,8.61
2017-04-16T00:03:04.481Z,8.64
2017-04-16T00:03:08.909Z,8.61
2017-04-16T00:03:13.341Z,8.54
2017-04-16T00:03:17.777Z,8.61
2017-04-16T00:03:22.208Z,8.67
2017-04-16T00:03:26.639Z,8.55
2017-04-16T00:03:31.074Z,8.61
2017-04-16T00:03:35.515Z,8.65
2017-04-16T00:03:39.876Z,8.54
2017-04-16T00:03:44.300Z,8.64
2017-04-16T00:03:48.726Z,8.64
2017-04-16T00:03:53.188Z,8.57
2017-04-16T00:03:57.604Z,8.67
2017-04-16T00:04:02.032Z,8.64
2017-04-16T00:04:06.340Z,8.63
2017-04-16T00:04:10.429Z,8.71
2017-04-16T00:04:14.863Z,8.65
2017-04-16T00:04:19.167Z,8.6
2017-04-16T00:04:23.601Z,8.57
2017-04-16T00:04:28.057Z,8.61
2017-04-16T00:04:32.480Z,8.58
2017-04-16T00:04:36.906Z,8.65
2017-04-16T00:04:41.329Z,8.65
2017-04-16T00:04:45.766Z,8.64
2017-04-16T00:04:50.194Z,8.55
2017-04-16T00:04:54.612Z,8.54
2017-04-16T00:04:59.035Z,8.63
2017-04-16T00:05:03.350Z,8.61
2017-04-16T00:05:07.783Z,8.61
2017-04-16T00:05:12.203Z,8.64
2017-04-16T00:05:16.520Z,8.6
2017-04-16T00:05:20.596Z,8.64
2017-04-16T00:05:25.044Z,8.57
2017-04-16T00:05:29.464Z,8.55
2017-04-16T00:05:33.894Z,8.6
2017-04-16T00:05:38.199Z,8.67
2017-04-16T00:05:42.509Z,8.6
2017-04-16T00:05:46.949Z,8.55
2017-04-16T00:05:51.077Z,8.64
2017-04-16T00:05:55.382Z,8.65
2017-04-16T00:05:59.810Z,8.6
2017-04-16T00:06:04.127Z,8.58
2017-04-16T00:06:08.317Z,8.65
2017-04-16T00:06:12.750Z,8.5
2017-04-16T00:06:16.944Z,8.61
2017-04-16T00:06:21.675Z,8.61
2017-04-16T00:06:25.866Z,8.55
2017-04-16T00:06:30.285Z,8.6
2017-04-16T00:06:34.599Z,8.6
2017-04-16T00:06:38.915Z,8.6
2017-04-16T00:06:43.116Z,8.58
2017-04-16T00:06:47.538Z,8.58
2017-04-16T00:06:51.843Z,8.6
2017-04-16T00:06:56.273Z,8.55
2017-04-16T00:07:00.740Z,8.6
2017-04-16T00:07:05.175Z,8.55
2017-04-16T00:07:09.483Z,8.57
2017-04-16T00:07:13.799Z,8.57
2017-04-16T00:07:18.114Z,8.63
2017-04-16T00:07:22.422Z,8.58
2017-04-16T00:07:26.841Z,8.55
2017-04-16T00:07:31.155Z,8.61
2017-04-16T00:07:35.602Z,8.55
2017-04-16T00:07:39.802Z,8.65
2017-04-16T00:07:44.115Z,8.6
2017-04-16T00:07:48.545Z,8.57
2017-04-16T00:07:52.852Z,8.54
2017-04-16T00:07:57.044Z,8.55
2017-04-16T00:08:01.236Z,8.6
2017-04-16T00:08:05.727Z,8.55
2017-04-16T00:08:09.818Z,8.55
2017-04-16T00:08:14.238Z,8.6
2017-04-16T00:08:18.430Z,8.6
2017-04-16T00:08:22.858Z,8.61
2017-04-16T00:08:27.289Z,8.6
2017-04-16T00:08:31.619Z,8.6
2017-04-16T00:08:35.937Z,8.49
2017-04-16T00:08:40.374Z,8.6
2017-04-16T00:08:44.804Z,8.54
2017-04-16T00:08:49.118Z,8.6
2017-04-16T00:08:53.437Z,8.64
2017-04-16T00:08:57.741Z,8.63
2017-04-16T00:09:02.058Z,8.57
2017-04-16T00:09:06.487Z,8.57
2017-04-16T00:09:10.732Z,8.58
2017-04-16T00:09:14.944Z,8.6
2017-04-16T00:09:19.260Z,8.63
2017-04-16T00:09:23.575Z,8.61
2017-04-16T00:09:27.781Z,8.61
2017-04-16T00:09:32.213Z,8.6
2017-04-16T00:09:36.528Z,8.67
2017-04-16T00:09:40.962Z,8.54
2017-04-16T00:09:45.276Z,8.52
2017-04-16T00:09:49.702Z,8.55
2017-04-16T00:09:54.021Z,8.57
2017-04-16T00:09:58.442Z,8.6
2017-04-16T00:10:03.061Z,8.54
2017-04-16T00:10:07.152Z,8.67
2017-04-16T00:10:11.580Z,8.55
2017-04-16T00:10:15.887Z,8.55
2017-04-16T00:10:20.109Z,8.6
2017-04-16T00:10:24.628Z,8.63
2017-04-16T00:10:28.936Z,8.55
2017-04-16T00:10:33.362Z,8.6
2017-04-16T00:10:37.558Z,8.58
2017-04-16T00:10:41.991Z,8.61
2017-04-16T00:10:46.182Z,8.57
2017-04-16T00:10:50.483Z,8.57
2017-04-16T00:10:54.908Z,8.57
2017-04-16T00:10:59.102Z,8.6
2017-04-16T00:11:03.528Z,8.57
2017-04-16T00:11:07.840Z,8.6
2017-04-16T00:11:12.148Z,8.61
2017-04-16T00:11:16.577Z,8.6
2017-04-16T00:11:21.004Z,8.55
2017-04-16T00:11:25.188Z,8.61
2017-04-16T00:11:30.028Z,8.57
2017-04-16T00:11:34.466Z,8.55
2017-04-16T00:11:38.656Z,8.58
2017-04-16T00:11:42.955Z,8.61
2017-04-16T00:11:47.372Z,8.55
2017-04-16T00:11:51.796Z,8.55
2017-04-16T00:11:56.218Z,8.55
2017-04-16T00:12:00.634Z,8.57
2017-04-16T00:12:05.056Z,8.54
2017-04-16T00:12:09.259Z,8.57
2017-04-16T00:12:13.690Z,8.57
2017-04-16T00:12:17.994Z,8.57
2017-04-16T00:12:22.418Z,8.55
2017-04-16T00:12:26.846Z,8.58
2017-04-16T00:12:31.280Z,8.61
2017-04-16T00:12:35.707Z,8.6
2017-04-16T00:12:40.132Z,8.64
2017-04-16T00:12:44.561Z,8.55
2017-04-16T00:12:48.997Z,8.58
2017-04-16T00:12:53.423Z,8.57
2017-04-16T00:12:57.859Z,8.54
2017-04-16T00:13:02.287Z,8.55
2017-04-16T00:13:06.714Z,8.61
2017-04-16T00:13:11.164Z,8.6
2017-04-16T00:13:15.486Z,8.61
2017-04-16T00:13:19.914Z,8.6
2017-04-16T00:13:24.355Z,8.57
2017-04-16T00:13:28.781Z,8.58
2017-04-16T00:13:33.104Z,8.55
2017-04-16T00:13:37.531Z,8.6
2017-04-16T00:13:41.970Z,8.57
2017-04-16T00:13:46.286Z,8.54
2017-04-16T00:13:50.712Z,8.6
2017-04-16T00:13:55.136Z,8.64
2017-04-16T00:13:59.557Z,8.64
2017-04-16T00:14:03.996Z,8.58
2017-04-16T00:14:08.194Z,8.58
2017-04-16T00:14:12.627Z,8.63
2017-04-16T00:14:17.053Z,8.6
2017-04-16T00:14:21.486Z,8.55
2017-04-16T00:14:25.923Z,8.6
2017-04-16T00:14:30.356Z,8.64
2017-04-16T00:14:34.786Z,8.55
2017-04-16T00:14:39.247Z,8.55
2017-04-16T00:14:43.673Z,8.57
2017-04-16T00:14:48.091Z,8.55
2017-04-16T00:14:52.557Z,8.55
2017-04-16T00:14:57.010Z,8.58
2017-04-16T00:15:01.447Z,8.55
2017-04-16T00:15:05.636Z,8.55
2017-04-16T00:15:10.057Z,8.57
2017-04-16T00:15:14.485Z,8.57
2017-04-16T00:15:18.798Z,8.58
2017-04-16T00:15:23.106Z,8.67
2017-04-16T00:15:27.522Z,8.54
2017-04-16T00:15:31.940Z,8.61
2017-04-16T00:15:36.366Z,8.55
2017-04-16T00:15:40.800Z,8.57
2017-04-16T00:15:45.109Z,8.6
2017-04-16T00:15:49.532Z,8.57
2017-04-16T00:15:53.957Z,8.6
2017-04-16T00:15:58.534Z,8.63
2017-04-16T00:16:02.963Z,8.55
2017-04-16T00:16:07.269Z,8.57
2017-04-16T00:16:11.690Z,8.57
2017-04-16T00:16:16.122Z,8.63
2017-04-16T00:16:20.572Z,8.63
2017-04-16T00:16:24.870Z,8.64
2017-04-16T00:16:29.173Z,8.54
2017-04-16T00:16:33.598Z,8.55
2017-04-16T00:16:38.035Z,8.64
2017-04-16T00:16:42.225Z,8.6
2017-04-16T00:16:46.656Z,8.55
2017-04-16T00:16:50.974Z,8.55
2017-04-16T00:16:55.404Z,8.6
2017-04-16T00:16:59.835Z,8.55
2017-04-16T00:17:04.308Z,8.6
2017-04-16T00:17:08.734Z,8.55
2017-04-16T00:17:13.161Z,8.61
2017-04-16T00:17:17.584Z,8.55
2017-04-16T00:17:22.041Z,8.54
2017-04-16T00:17:26.472Z,8.54
2017-04-16T00:17:30.670Z,8.6
2017-04-16T00:17:35.105Z,8.6
2017-04-16T00:17:39.204Z,8.54
2017-04-16T00:17:43.635Z,8.58
2017-04-16T00:17:48.066Z,8.58
2017-04-16T00:17:52.493Z,8.61
2017-04-16T00:17:56.927Z,8.57
2017-04-16T00:18:01.392Z,8.7
2017-04-16T00:18:05.814Z,8.61
2017-04-16T00:18:10.326Z,8.58
2017-04-16T00:18:14.877Z,8.57
2017-04-16T00:18:19.192Z,8.5
2017-04-16T00:18:23.615Z,8.58
2017-04-16T00:18:27.804Z,8.58
2017-04-16T00:18:32.113Z,8.55
2017-04-16T00:18:36.542Z,8.55
2017-04-16T00:18:40.852Z,8.6
2017-04-16T00:18:45.160Z,8.67
2017-04-16T00:18:49.597Z,8.58
2017-04-16T00:18:54.015Z,8.57
2017-04-16T00:18:58.438Z,8.55
2017-04-16T00:19:02.913Z,8.58
2017-04-16T00:19:07.349Z,8.54
2017-04-16T00:19:11.774Z,8.55
2017-04-16T00:19:16.204Z,8.6
2017-04-16T00:19:20.747Z,8.55
2017-04-16T00:19:25.174Z,8.55
2017-04-16T00:19:29.365Z,8.55
2017-04-16T00:19:33.801Z,8.55
2017-04-16T00:19:38.227Z,8.57
2017-04-16T00:19:42.658Z,8.54
2017-04-16T00:19:47.084Z,8.57
2017-04-16T00:19:51.513Z,8.6
2017-04-16T00:19:55.943Z,8.65
2017-04-16T00:20:00.373Z,8.55
2017-04-16T00:20:04.688Z,8.61
2017-04-16T00:20:08.993Z,8.6
2017-04-16T00:20:13.424Z,8.54
2017-04-16T00:20:17.851Z,8.55
2017-04-16T00:20:22.036Z,8.55
2017-04-16T00:20:26.385Z,8.63
2017-04-16T00:20:30.825Z,8.55
2017-04-16T00:20:35.143Z,8.54
2017-04-16T00:20:39.569Z,8.52
2017-04-16T00:20:43.769Z,8.55
2017-04-16T00:20:48.211Z,8.58
2017-04-16T00:20:52.638Z,8.52
2017-04-16T00:20:57.059Z,8.58
2017-04-16T00:21:01.491Z,8.52
2017-04-16T00:21:05.930Z,8.5
2017-04-16T00:21:10.354Z,8.55
2017-04-16T00:21:14.775Z,8.5
2017-04-16T00:21:19.194Z,8.58
2017-04-16T00:21:23.623Z,8.52
2017-04-16T00:21:28.075Z,8.6
2017-04-16T00:21:32.628Z,8.54
2017-04-16T00:21:37.047Z,8.55
2017-04-16T00:21:41.471Z,8.55
2017-04-16T00:21:45.777Z,8.57
2017-04-16T00:21:50.201Z,8.52
2017-04-16T00:21:54.619Z,8.6
2017-04-16T00:21:59.047Z,8.57
2017-04-16T00:22:03.502Z,8.6
2017-04-16T00:22:07.689Z,8.57
2017-04-16T00:22:12.107Z,8.55
2017-04-16T00:22:16.537Z,8.55
2017-04-16T00:22:20.985Z,8.55
2017-04-16T00:22:25.418Z,8.55
2017-04-16T00:22:29.841Z,8.58
2017-04-16T00:22:34.153Z,8.52
2017-04-16T00:22:38.575Z,8.58
2017-04-16T00:22:42.760Z,8.58
2017-04-16T00:22:47.191Z,8.61
2017-04-16T00:22:51.503Z,8.57
2017-04-16T00:22:55.940Z,8.52
2017-04-16T00:23:00.256Z,8.52
2017-04-16T00:23:04.929Z,8.55
2017-04-16T00:23:09.360Z,8.5
2017-04-16T00:23:13.793Z,8.54
2017-04-16T00:23:18.214Z,8.54
2017-04-16T00:23:22.638Z,8.54
2017-04-16T00:23:26.949Z,8.54
2017-04-16T00:23:31.381Z,8.57
2017-04-16T00:23:35.807Z,8.6
2017-04-16T00:23:40.241Z,8.61
2017-04-16T00:23:44.550Z,8.55
2017-04-16T00:23:49.146Z,8.54
2017-04-16T00:23:53.575Z,8.6
2017-04-16T00:23:57.876Z,8.63
2017-04-16T00:24:02.550Z,8.61
2017-04-16T00:24:06.986Z,8.55
2017-04-16T00:24:11.411Z,8.63
2017-04-16T00:24:15.721Z,8.52
2017-04-16T00:24:20.032Z,8.5
2017-04-16T00:24:24.465Z,8.57
2017-04-16T00:24:28.895Z,8.54
2017-04-16T00:24:33.323Z,8.6
2017-04-16T00:24:37.747Z,8.58
2017-04-16T00:24:41.973Z,8.55
2017-04-16T00:24:46.282Z,8.5
2017-04-16T00:24:50.710Z,8.6
2017-04-16T00:24:55.577Z,8.55
2017-04-16T00:25:00.019Z,8.47
2017-04-16T00:25:04.683Z,8.52
2017-04-16T00:25:09.112Z,8.55
2017-04-16T00:25:13.542Z,8.58
2017-04-16T00:25:18.003Z,8.55
2017-04-16T00:25:22.426Z,8.46
2017-04-16T00:25:26.849Z,8.57
2017-04-16T00:25:31.159Z,8.55
2017-04-16T00:25:35.582Z,8.49
2017-04-16T00:25:39.648Z,8.46
2017-04-16T00:25:44.072Z,8.54
2017-04-16T00:25:48.500Z,8.46
2017-04-16T00:25:52.928Z,8.5
2017-04-16T00:25:57.349Z,8.49
2017-04-16T00:26:01.847Z,8.54
2017-04-16T00:26:06.271Z,8.58
2017-04-16T00:26:10.697Z,8.5
2017-04-16T00:26:15.003Z,8.5
2017-04-16T00:26:19.430Z,8.47
2017-04-16T00:26:23.736Z,8.52
2017-04-16T00:26:28.160Z,8.5
2017-04-16T00:26:32.470Z,8.47
2017-04-16T00:26:36.897Z,8.49
2017-04-16T00:26:41.088Z,8.45
2017-04-16T00:26:45.434Z,8.5
2017-04-16T00:26:49.861Z,8.52
2017-04-16T00:26:54.282Z,8.45
2017-04-16T00:26:58.699Z,8.45
2017-04-16T00:27:03.122Z,8.46
2017-04-16T00:27:07.438Z,8.49
2017-04-16T00:27:12.027Z,8.45
2017-04-16T00:27:16.461Z,8.52
2017-04-16T00:27:20.768Z,8.46
2017-04-16T00:27:25.080Z,8.49
2017-04-16T00:27:29.516Z,8.47
2017-04-16T00:27:33.942Z,8.46
2017-04-16T00:27:38.374Z,8.54
2017-04-16T00:27:42.816Z,8.49
2017-04-16T00:27:47.008Z,8.47
2017-04-16T00:27:51.439Z,8.49
2017-04-16T00:27:55.874Z,8.49
2017-04-16T00:28:00.321Z,8.46
2017-04-16T00:28:04.778Z,8.5
2017-04-16T00:28:09.084Z,8.49
2017-04-16T00:28:13.386Z,8.49
2017-04-16T00:28:17.827Z,8.54
2017-04-16T00:28:22.210Z,8.49
2017-04-16T00:28:26.634Z,8.54
2017-04-16T00:28:31.060Z,8.5
2017-04-16T00:28:35.255Z,8.5
2017-04-16T00:28:39.572Z,8.49
2017-04-16T00:28:43.892Z,8.46
2017-04-16T00:28:48.319Z,8.45
2017-04-16T00:28:52.752Z,8.54
2017-04-16T00:28:57.211Z,8.5
2017-04-16T00:29:01.830Z,8.49
2017-04-16T00:29:06.263Z,8.46
2017-04-16T00:29:10.694Z,8.45
2017-04-16T00:29:15.146Z,8.42
2017-04-16T00:29:19.565Z,8.43
2017-04-16T00:29:24.204Z,8.54
2017-04-16T00:29:28.706Z,8.45
2017-04-16T00:29:33.138Z,8.49
2017-04-16T00:29:37.572Z,8.45
2017-04-16T00:29:41.991Z,8.42
2017-04-16T00:29:46.421Z,8.39
2017-04-16T00:29:50.735Z,8.4
2017-04-16T00:29:55.162Z,8.45
2017-04-16T00:29:59.586Z,8.43
2017-04-16T00:30:03.899Z,8.39
2017-04-16T00:30:08.330Z,8.45
2017-04-16T00:30:12.765Z,8.39
2017-04-16T00:30:17.071Z,8.5
2017-04-16T00:30:21.146Z,8.43
2017-04-16T00:30:25.455Z,8.49
2017-04-16T00:30:29.874Z,8.45
2017-04-16T00:30:34.397Z,8.39
2017-04-16T00:30:38.703Z,8.39
2017-04-16T00:30:42.930Z,8.43
2017-04-16T00:30:47.356Z,8.42
2017-04-16T00:30:51.786Z,8.49
2017-04-16T00:30:56.212Z,8.4
2017-04-16T00:31:00.646Z,8.47
2017-04-16T00:31:05.267Z,8.45
2017-04-16T00:31:09.703Z,8.49
2017-04-16T00:31:14.011Z,8.43
2017-04-16T00:31:18.441Z,8.43
2017-04-16T00:31:22.864Z,8.4
2017-04-16T00:31:27.168Z,8.42
2017-04-16T00:31:31.596Z,8.42
2017-04-16T00:31:36.021Z,8.43
2017-04-16T00:31:40.319Z,8.4
2017-04-16T00:31:44.796Z,8.43
2017-04-16T00:31:49.100Z,8.43
2017-04-16T00:31:53.533Z,8.47
2017-04-16T00:31:57.951Z,8.42
2017-04-16T00:32:02.670Z,8.42
2017-04-16T00:32:06.870Z,8.45
2017-04-16T00:32:11.175Z,8.4
2017-04-16T00:32:15.474Z,8.39
2017-04-16T00:32:19.900Z,8.4
2017-04-16T00:32:24.220Z,8.4
2017-04-16T00:32:28.676Z,8.39
2017-04-16T00:32:33.101Z,8.4
2017-04-16T00:32:37.535Z,8.36
2017-04-16T00:32:41.856Z,8.45
2017-04-16T00:32:46.294Z,8.4
2017-04-16T00:32:50.787Z,8.42
2017-04-16T00:32:55.219Z,8.43
2017-04-16T00:32:59.528Z,8.4
2017-04-16T00:33:03.985Z,8.37
2017-04-16T00:33:08.198Z,8.46
2017-04-16T00:33:12.629Z,8.39
2017-04-16T00:33:17.057Z,8.42
2017-04-16T00:33:21.482Z,8.42
2017-04-16T00:33:25.908Z,8.43
2017-04-16T00:33:30.219Z,8.46
2017-04-16T00:33:34.654Z,8.46
2017-04-16T00:33:39.092Z,8.45
2017-04-16T00:33:43.524Z,8.43
2017-04-16T00:33:47.944Z,8.46
2017-04-16T00:33:52.418Z,8.4
2017-04-16T00:33:56.746Z,8.46
2017-04-16T00:34:01.166Z,8.43
2017-04-16T00:34:05.692Z,8.42
2017-04-16T00:34:09.996Z,8.47
2017-04-16T00:34:14.444Z,8.34
2017-04-16T00:34:18.753Z,8.42
2017-04-16T00:34:23.185Z,8.42
2017-04-16T00:34:27.607Z,8.43
2017-04-16T00:34:32.036Z,8.46
2017-04-16T00:34:36.346Z,8.4
2017-04-16T00:34:40.771Z,8.43
2017-04-16T00:34:44.961Z,8.37
2017-04-16T00:34:49.387Z,8.43
2017-04-16T00:34:53.811Z,8.34
2017-04-16T00:34:58.231Z,8.42
2017-04-16T00:35:02.789Z,8.47
2017-04-16T00:35:07.403Z,8.46
2017-04-16T00:35:11.826Z,8.45
2017-04-16T00:35:16.241Z,8.39
2017-04-16T00:35:20.671Z,8.43
2017-04-16T00:35:25.094Z,8.46
2017-04-16T00:35:29.521Z,8.43
2017-04-16T00:35:33.825Z,8.45
2017-04-16T00:35:38.248Z,8.42
2017-04-16T00:35:42.551Z,8.43
2017-04-16T00:35:46.980Z,8.4
2017-04-16T00:35:51.288Z,8.45
2017-04-16T00:35:55.714Z,8.39
2017-04-16T00:36:00.176Z,8.45
2017-04-16T00:36:04.597Z,8.43
2017-04-16T00:36:08.962Z,8.45
2017-04-16T00:36:13.421Z,8.42
2017-04-16T00:36:17.847Z,8.39
2017-04-16T00:36:21.921Z,8.4
2017-04-16T00:36:26.741Z,8.36
2017-04-16T00:36:31.157Z,8.4
2017-04-16T00:36:35.579Z,8.43
2017-04-16T00:36:40.010Z,8.42
2017-04-16T00:36:44.199Z,8.42
2017-04-16T00:36:48.621Z,8.36
2017-04-16T00:36:53.039Z,8.37
2017-04-16T00:36:57.465Z,8.39
2017-04-16T00:37:01.773Z,8.43
2017-04-16T00:37:06.207Z,8.37
2017-04-16T00:37:10.629Z,8.39
2017-04-16T00:37:14.815Z,8.45
2017-04-16T00:37:19.246Z,8.37
2017-04-16T00:37:23.554Z,8.43
2017-04-16T00:37:27.976Z,8.39
2017-04-16T00:37:32.409Z,8.42
2017-04-16T00:37:36.855Z,8.42
2017-04-16T00:37:41.284Z,8.37
2017-04-16T00:37:45.597Z,8.45
2017-04-16T00:37:50.028Z,8.39
2017-04-16T00:37:54.470Z,8.34
2017-04-16T00:37:58.903Z,8.39
2017-04-16T00:38:03.330Z,8.36
2017-04-16T00:38:07.532Z,8.4
2017-04-16T00:38:11.961Z,8.42
2017-04-16T00:38:16.261Z,8.4
2017-04-16T00:38:20.688Z,8.46
2017-04-16T00:38:25.124Z,8.42
2017-04-16T00:38:29.551Z,8.42
2017-04-16T00:38:33.979Z,8.42
2017-04-16T00:38:38.403Z,8.39
2017-04-16T00:38:42.727Z,8.4
2017-04-16T00:38:47.203Z,8.39
2017-04-16T00:38:51.395Z,8.37
2017-04-16T00:38:55.819Z,8.36
2017-04-16T00:39:00.248Z,8.43
2017-04-16T00:39:04.913Z,8.42
2017-04-16T00:39:09.334Z,8.47
2017-04-16T00:39:13.757Z,8.45
2017-04-16T00:39:18.181Z,8.45
2017-04-16T00:39:22.520Z,8.46
2017-04-16T00:39:26.939Z,8.4
2017-04-16T00:39:31.366Z,8.42
2017-04-16T00:39:35.679Z,8.42
2017-04-16T00:39:40.146Z,8.37
2017-04-16T00:39:44.453Z,8.36
2017-04-16T00:39:48.875Z,8.39
2017-04-16T00:39:53.302Z,8.39
2017-04-16T00:39:57.731Z,8.45
2017-04-16T00:40:02.260Z,8.39
2017-04-16T00:40:06.563Z,8.46
2017-04-16T00:40:10.992Z,8.45
2017-04-16T00:40:15.301Z,8.39
2017-04-16T00:40:19.723Z,8.46
2017-04-16T00:40:24.025Z,8.46
2017-04-16T00:40:28.450Z,8.43
2017-04-16T00:40:32.785Z,8.45
2017-04-16T00:40:37.229Z,8.43
2017-04-16T00:40:41.533Z,8.45
2017-04-16T00:40:45.725Z,8.4
2017-04-16T00:40:50.147Z,8.42
2017-04-16T00:40:54.566Z,8.42
2017-04-16T00:40:58.986Z,8.42
2017-04-16T00:41:03.407Z,8.36
2017-04-16T00:41:07.858Z,8.45
2017-04-16T00:41:12.281Z,8.34
2017-04-16T00:41:16.698Z,8.46
2017-04-16T00:41:21.006Z,8.45
2017-04-16T00:41:25.430Z,8.4
2017-04-16T00:41:29.765Z,8.43
2017-04-16T00:41:34.189Z,8.46
2017-04-16T00:41:38.619Z,8.46
2017-04-16T00:41:42.809Z,8.43
2017-04-16T00:41:47.479Z,8.43
2017-04-16T00:41:51.797Z,8.45
2017-04-16T00:41:56.105Z,8.43
2017-04-16T00:42:00.584Z,8.43
2017-04-16T00:42:05.009Z,8.42
2017-04-16T00:42:09.316Z,8.42
2017-04-16T00:42:13.742Z,8.43
2017-04-16T00:42:18.174Z,8.43
2017-04-16T00:42:22.476Z,8.42
2017-04-16T00:42:26.897Z,8.42
2017-04-16T00:42:31.087Z,8.45
2017-04-16T00:42:35.511Z,8.47
2017-04-16T00:42:39.816Z,8.43
2017-04-16T00:42:44.128Z,8.45
2017-04-16T00:42:48.450Z,8.42
2017-04-16T00:42:52.946Z,8.45
2017-04-16T00:42:57.571Z,8.45
2017-04-16T00:43:02.003Z,8.46
2017-04-16T00:43:06.437Z,8.42
2017-04-16T00:43:10.885Z,8.39
2017-04-16T00:43:15.322Z,8.42
2017-04-16T00:43:19.750Z,8.42
2017-04-16T00:43:23.824Z,8.45
2017-04-16T00:43:28.247Z,8.4
2017-04-16T00:43:32.673Z,8.4
2017-04-16T00:43:37.102Z,8.42
2017-04-16T00:43:41.415Z,8.42
2017-04-16T00:43:45.725Z,8.43
2017-04-16T00:43:50.147Z,8.37
2017-04-16T00:43:54.565Z,8.39
2017-04-16T00:43:58.995Z,8.42
2017-04-16T00:44:03.918Z,8.43
2017-04-16T00:44:08.353Z,8.45
2017-04-16T00:44:12.662Z,8.4
2017-04-16T00:44:17.089Z,8.37
2017-04-16T00:44:21.414Z,8.39
2017-04-16T00:44:25.876Z,8.4
2017-04-16T00:44:30.302Z,8.37
2017-04-16T00:44:34.729Z,8.39
2017-04-16T00:44:39.158Z,8.39
2017-04-16T00:44:43.347Z,8.37
2017-04-16T00:44:47.773Z,8.37
2017-04-16T00:44:52.201Z,8.37
2017-04-16T00:44:56.632Z,8.39
2017-04-16T00:45:01.057Z,8.36
2017-04-16T00:45:05.627Z,8.36
2017-04-16T00:45:09.760Z,8.42
2017-04-16T00:45:14.218Z,8.42
2017-04-16T00:45:18.519Z,8.37
2017-04-16T00:45:22.946Z,8.39
2017-04-16T00:45:27.366Z,8.4
2017-04-16T00:45:31.816Z,8.36
2017-04-16T00:45:36.251Z,8.37
2017-04-16T00:45:40.557Z,8.4
2017-04-16T00:45:44.860Z,8.36
2017-04-16T00:45:49.288Z,8.4
2017-04-16T00:45:53.477Z,8.46
2017-04-16T00:45:57.916Z,8.37
2017-04-16T00:46:02.322Z,8.39
2017-04-16T00:46:06.766Z,8.39
2017-04-16T00:46:10.955Z,8.4
2017-04-16T00:46:15.514Z,8.4
2017-04-16T00:46:19.938Z,8.34
2017-04-16T00:46:24.364Z,8.39
2017-04-16T00:46:28.788Z,8.45
2017-04-16T00:46:33.215Z,8.43
2017-04-16T00:46:37.634Z,8.37
2017-04-16T00:46:41.935Z,8.37
2017-04-16T00:46:46.254Z,8.42
2017-04-16T00:46:50.676Z,8.37
2017-04-16T00:46:55.097Z,8.42
2017-04-16T00:46:59.290Z,8.39
2017-04-16T00:47:04.098Z,8.37
2017-04-16T00:47:08.520Z,8.4
2017-04-16T00:47:12.946Z,8.4
2017-04-16T00:47:17.370Z,8.42
2017-04-16T00:47:21.876Z,8.43
2017-04-16T00:47:26.305Z,8.37
2017-04-16T00:47:30.732Z,8.39
2017-04-16T00:47:35.162Z,8.34
2017-04-16T00:47:39.474Z,8.37
2017-04-16T00:47:43.673Z,8.39
2017-04-16T00:47:48.100Z,8.4
2017-04-16T00:47:52.530Z,8.4
2017-04-16T00:47:56.958Z,8.39
2017-04-16T00:48:01.384Z,8.36
2017-04-16T00:48:05.816Z,8.37
2017-04-16T00:48:10.237Z,8.4
2017-04-16T00:48:14.591Z,8.4
2017-04-16T00:48:19.008Z,8.42
2017-04-16T00:48:23.437Z,8.4
2017-04-16T00:48:28.133Z,8.4
2017-04-16T00:48:32.631Z,8.36
2017-04-16T00:48:37.065Z,8.42
2017-04-16T00:48:41.386Z,8.42
2017-04-16T00:48:45.820Z,8.42
2017-04-16T00:48:50.254Z,8.4
2017-04-16T00:48:54.681Z,8.34
2017-04-16T00:48:59.107Z,8.36
2017-04-16T00:49:03.538Z,8.4
2017-04-16T00:49:07.969Z,8.39
2017-04-16T00:49:12.400Z,8.39
2017-04-16T00:49:16.715Z,8.43
2017-04-16T00:49:21.147Z,8.39
2017-04-16T00:49:25.578Z,8.39
2017-04-16T00:49:30.006Z,8.39
2017-04-16T00:49:34.434Z,8.4
2017-04-16T00:49:38.865Z,8.39
2017-04-16T00:49:43.288Z,8.34
2017-04-16T00:49:47.596Z,8.34
2017-04-16T00:49:52.020Z,8.34
2017-04-16T00:49:56.475Z,8.37
2017-04-16T00:50:00.913Z,8.39
2017-04-16T00:50:05.369Z,8.42
2017-04-16T00:50:09.675Z,8.42
2017-04-16T00:50:14.103Z,8.39
2017-04-16T00:50:18.536Z,8.39
2017-04-16T00:50:22.599Z,8.29
2017-04-16T00:50:27.024Z,8.36
2017-04-16T00:50:31.456Z,8.37
2017-04-16T00:50:35.761Z,8.42
2017-04-16T00:50:40.065Z,8.34
2017-04-16T00:50:44.578Z,8.39
2017-04-16T00:50:49.010Z,8.34
2017-04-16T00:50:53.436Z,8.45
2017-04-16T00:50:57.855Z,8.39
2017-04-16T00:51:02.157Z,8.43
2017-04-16T00:51:06.610Z,8.34
2017-04-16T00:51:11.047Z,8.39
2017-04-16T00:51:15.230Z,8.39
2017-04-16T00:51:19.537Z,8.34
2017-04-16T00:51:23.967Z,8.36
2017-04-16T00:51:28.596Z,8.37
2017-04-16T00:51:33.015Z,8.36
2017-04-16T00:51:37.440Z,8.39
2017-04-16T00:51:41.752Z,8.36
2017-04-16T00:51:46.054Z,8.39
2017-04-16T00:51:50.471Z,8.4
2017-04-16T00:51:55.085Z,8.4
2017-04-16T00:51:59.518Z,8.34
2017-04-16T00:52:03.809Z,8.45
2017-04-16T00:52:08.115Z,8.42
2017-04-16T00:52:12.544Z,8.43
2017-04-16T00:52:16.979Z,8.39
2017-04-16T00:52:21.285Z,8.36
2017-04-16T00:52:25.712Z,8.45
2017-04-16T00:52:30.134Z,8.39
2017-04-16T00:52:34.562Z,8.4
2017-04-16T00:52:39.026Z,8.4
2017-04-16T00:52:43.463Z,8.4
2017-04-16T00:52:47.886Z,8.37
2017-04-16T00:52:52.320Z,8.45
2017-04-16T00:52:56.760Z,8.4
2017-04-16T00:53:01.191Z,8.42
2017-04-16T00:53:05.769Z,8.43
2017-04-16T00:53:10.197Z,8.45
2017-04-16T00:53:14.657Z,8.45
2017-04-16T00:53:19.088Z,8.46
2017-04-16T00:53:23.279Z,8.4
2017-04-16T00:53:27.713Z,8.43
2017-04-16T00:53:32.064Z,8.42
2017-04-16T00:53:36.511Z,8.43
2017-04-16T00:53:40.832Z,8.42
2017-04-16T00:53:45.034Z,8.43
2017-04-16T00:53:49.474Z,8.46
2017-04-16T00:53:53.658Z,8.43
2017-04-16T00:53:58.087Z,8.4
2017-04-16T00:54:02.497Z,8.4
2017-04-16T00:54:07.051Z,8.4
2017-04-16T00:54:11.357Z,8.42
2017-04-16T00:54:15.783Z,8.45
2017-04-16T00:54:20.094Z,8.46
2017-04-16T00:54:24.533Z,8.45
2017-04-16T00:54:28.984Z,8.42
2017-04-16T00:54:33.418Z,8.4
2017-04-16T00:54:37.845Z,8.42
2017-04-16T00:54:42.150Z,8.47
2017-04-16T00:54:46.575Z,8.45
2017-04-16T00:54:50.998Z,8.4
2017-04-16T00:54:55.422Z,8.42
2017-04-16T00:54:59.854Z,8.46
2017-04-16T00:55:04.168Z,8.4
2017-04-16T00:55:08.591Z,8.46
2017-04-16T00:55:13.098Z,8.46
2017-04-16T00:55:17.524Z,8.46
2017-04-16T00:55:21.957Z,8.45
2017-04-16T00:55:26.380Z,8.43
2017-04-16T00:55:30.686Z,8.39
2017-04-16T00:55:35.112Z,8.42
2017-04-16T00:55:39.539Z,8.43
2017-04-16T00:55:43.847Z,8.4
2017-04-16T00:55:48.280Z,8.43
2017-04-16T00:55:52.728Z,8.43
2017-04-16T00:55:57.154Z,8.43
2017-04-16T00:56:01.580Z,8.43
2017-04-16T00:56:06.001Z,8.46
2017-04-16T00:56:10.455Z,8.45
2017-04-16T00:56:14.884Z,8.43
2017-04-16T00:56:19.322Z,8.39
2017-04-16T00:56:23.806Z,8.47
2017-04-16T00:56:28.232Z,8.42
2017-04-16T00:56:32.422Z,8.45
2017-04-16T00:56:36.850Z,8.39
2017-04-16T00:56:41.155Z,8.42
2017-04-16T00:56:45.593Z,8.4
2017-04-16T00:56:50.016Z,8.4
2017-04-16T00:56:54.439Z,8.36
2017-04-16T00:56:58.867Z,8.42
2017-04-16T00:57:03.311Z,8.36
2017-04-16T00:57:07.737Z,8.37
2017-04-16T00:57:12.163Z,8.4
2017-04-16T00:57:16.584Z,8.37
2017-04-16T00:57:20.912Z,8.45
2017-04-16T00:57:25.256Z,8.43
2017-04-16T00:57:29.690Z,8.42
2017-04-16T00:57:34.110Z,8.4
2017-04-16T00:57:38.545Z,8.42
2017-04-16T00:57:42.976Z,8.39
2017-04-16T00:57:47.408Z,8.4
2017-04-16T00:57:51.837Z,8.43
2017-04-16T00:57:56.264Z,8.45
2017-04-16T00:58:00.699Z,8.46
2017-04-16T00:58:05.425Z,8.43
2017-04-16T00:58:09.731Z,8.42
2017-04-16T00:58:14.037Z,8.46
2017-04-16T00:58:18.465Z,8.46
2017-04-16T00:58:22.892Z,8.47
2017-04-16T00:58:27.195Z,8.4
2017-04-16T00:58:31.634Z,8.43
2017-04-16T00:58:36.330Z,8.47
2017-04-16T00:58:40.757Z,8.43
2017-04-16T00:58:45.188Z,8.45
2017-04-16T00:58:49.498Z,8.43
2017-04-16T00:58:53.938Z,8.43